createdAt,value
2018-07-12T00:00:59.599Z,52.00
2018-07-12T00:03:26.098Z,52.00
2018-07-12T00:05:52.848Z,51.90
2018-07-12T00:08:19.384Z,52.00
2018-07-12T00:10:45.846Z,51.90
2018-07-12T00:13:12.452Z,52.00
2018-07-12T00:15:38.904Z,51.90
2018-07-12T00:18:05.406Z,51.90
2018-07-12T00:20:31.966Z,52.00
2018-07-12T00:22:58.457Z,52.00
2018-07-12T00:25:24.939Z,51.90
2018-07-12T00:27:51.421Z,52.00
2018-07-12T00:30:17.956Z,51.50
2018-07-12T00:32:44.878Z,52.00
2018-07-12T00:35:11.684Z,52.00
2018-07-12T00:37:38.221Z,51.90
2018-07-12T00:40:04.758Z,52.00
2018-07-12T00:42:31.263Z,51.90
2018-07-12T00:44:58.127Z,52.00
2018-07-12T00:47:25.416Z,51.90
2018-07-12T00:49:51.924Z,51.90
2018-07-12T00:52:18.476Z,51.90
2018-07-12T00:54:44.963Z,52.00
2018-07-12T00:57:12.333Z,52.10
2018-07-12T00:59:38.909Z,52.00
2018-07-12T01:02:05.491Z,52.00
2018-07-12T01:04:32.070Z,51.90
2018-07-12T01:06:59.183Z,51.90
2018-07-12T01:09:25.707Z,51.90
2018-07-12T01:11:52.220Z,51.90
2018-07-12T01:14:18.757Z,51.90
2018-07-12T01:16:45.253Z,51.90
2018-07-12T01:19:11.731Z,51.90
2018-07-12T01:21:38.206Z,51.90
2018-07-12T01:24:04.963Z,51.90
2018-07-12T01:26:31.608Z,51.90
2018-07-12T01:28:58.072Z,51.90
2018-07-12T01:31:24.580Z,51.90
2018-07-12T01:33:51.010Z,51.90
2018-07-12T01:36:17.491Z,51.90
2018-07-12T01:38:43.926Z,52.00
2018-07-12T01:41:10.424Z,51.90
2018-07-12T01:43:37.002Z,51.90
2018-07-12T01:46:03.588Z,51.90
2018-07-12T01:48:30.078Z,51.90
2018-07-12T01:53:23.748Z,51.90
2018-07-12T01:55:50.226Z,51.90
2018-07-12T01:58:16.734Z,51.90
2018-07-12T02:00:43.414Z,51.90
2018-07-12T02:03:09.986Z,51.90
2018-07-12T02:05:37.421Z,51.90
2018-07-12T02:08:03.907Z,51.90
2018-07-12T02:10:30.416Z,51.90
2018-07-12T02:12:56.870Z,51.90
2018-07-12T02:15:23.883Z,51.90
2018-07-12T02:17:50.359Z,51.90
2018-07-12T02:20:16.879Z,51.90
2018-07-12T02:22:43.353Z,51.90
2018-07-12T02:25:10.415Z,51.90
2018-07-12T02:27:36.966Z,51.90
2018-07-12T02:30:04.012Z,51.90
2018-07-12T02:32:30.475Z,51.90
2018-07-12T02:34:57.252Z,51.90
2018-07-12T02:37:23.977Z,51.90
2018-07-12T02:39:50.517Z,52.00
2018-07-12T02:42:17.264Z,51.90
2018-07-12T02:44:43.771Z,51.90
2018-07-12T02:47:10.521Z,52.50
2018-07-12T02:49:37.003Z,52.00
2018-07-12T02:52:03.492Z,51.90
2018-07-12T02:54:29.961Z,51.90
2018-07-12T02:59:23.513Z,52.30
2018-07-12T03:01:49.994Z,52.10
2018-07-12T03:04:16.460Z,52.90
2018-07-12T03:06:42.941Z,51.70
2018-07-12T03:09:09.429Z,51.90
2018-07-12T03:11:36.437Z,52.00
2018-07-12T03:14:03.161Z,52.10
2018-07-12T03:16:29.711Z,52.00
2018-07-12T03:18:56.139Z,52.20
2018-07-12T03:21:22.569Z,52.10
2018-07-12T03:23:49.032Z,51.90
2018-07-12T03:26:15.495Z,52.20
2018-07-12T03:28:41.937Z,52.10
2018-07-12T03:31:08.387Z,52.00
2018-07-12T03:33:35.732Z,52.10
2018-07-12T03:38:29.169Z,52.10
2018-07-12T03:40:55.656Z,52.10
2018-07-12T03:43:22.184Z,52.10
2018-07-12T03:45:48.813Z,52.10
2018-07-12T03:48:15.307Z,52.10
2018-07-12T03:50:41.791Z,52.10
2018-07-12T03:53:08.240Z,52.20
2018-07-12T03:55:34.849Z,52.20
2018-07-12T03:58:01.383Z,52.10
2018-07-12T04:00:27.853Z,52.10
2018-07-12T04:02:54.291Z,52.50
2018-07-12T04:05:20.800Z,52.20
2018-07-12T04:07:47.251Z,52.10
2018-07-12T04:10:13.707Z,52.30
2018-07-12T04:12:40.194Z,52.20
2018-07-12T04:15:06.765Z,52.20
2018-07-12T04:17:34.138Z,52.30
2018-07-12T04:20:02.769Z,52.30
2018-07-12T04:22:31.367Z,52.30
2018-07-12T04:24:57.818Z,52.10
2018-07-12T04:27:24.609Z,52.30
2018-07-12T04:29:52.277Z,52.20
2018-07-12T04:32:18.934Z,52.30
2018-07-12T04:34:46.143Z,52.20
2018-07-12T04:37:12.573Z,51.80
2018-07-12T04:39:39.036Z,52.30
2018-07-12T04:42:05.511Z,52.50
2018-07-12T04:44:32.261Z,52.40
2018-07-12T04:46:58.739Z,52.40
2018-07-12T04:49:25.948Z,52.70
2018-07-12T04:51:53.974Z,52.70
2018-07-12T04:54:20.624Z,52.80
2018-07-12T04:56:47.367Z,52.90
2018-07-12T04:59:14.087Z,52.80
2018-07-12T05:01:40.560Z,52.90
2018-07-12T05:04:07.044Z,52.80
2018-07-12T05:06:33.556Z,52.80
2018-07-12T05:09:00.069Z,52.80
2018-07-12T05:11:26.526Z,52.80
2018-07-12T05:13:53.830Z,52.80
2018-07-12T05:16:20.911Z,52.90
2018-07-12T05:18:49.095Z,52.80
2018-07-12T05:21:20.736Z,52.90
2018-07-12T05:23:47.234Z,52.90
2018-07-12T05:26:13.730Z,52.90
2018-07-12T05:28:40.166Z,53.00
2018-07-12T05:31:07.050Z,53.00
2018-07-12T05:33:33.515Z,53.20
2018-07-12T05:35:59.992Z,53.30
2018-07-12T05:38:26.456Z,53.30
2018-07-12T05:40:52.915Z,53.40
2018-07-12T05:43:19.381Z,53.50
2018-07-12T05:45:45.965Z,53.70
2018-07-12T05:48:12.436Z,53.80
2018-07-12T05:50:43.460Z,53.80
2018-07-12T05:53:10.014Z,53.90
2018-07-12T05:55:37.349Z,53.90
2018-07-12T05:58:03.842Z,54.10
2018-07-12T06:00:30.340Z,54.00
2018-07-12T06:02:56.829Z,54.10
2018-07-12T06:05:23.259Z,54.00
2018-07-12T06:07:49.739Z,54.00
2018-07-12T06:10:16.195Z,54.10
2018-07-12T06:12:43.425Z,54.10
2018-07-12T06:15:09.904Z,54.20
2018-07-12T06:17:36.445Z,54.20
2018-07-12T06:20:04.096Z,54.50
2018-07-12T06:22:30.605Z,54.50
2018-07-12T06:24:57.142Z,54.60
2018-07-12T06:27:23.580Z,54.50
2018-07-12T06:29:50.094Z,54.60
2018-07-12T06:32:16.540Z,54.20
2018-07-12T06:34:43.018Z,53.90
2018-07-12T06:37:10.211Z,53.50
2018-07-12T06:39:36.666Z,53.50
2018-07-12T06:42:03.158Z,53.10
2018-07-12T06:44:29.639Z,53.10
2018-07-12T06:46:56.275Z,52.90
2018-07-12T06:49:22.926Z,52.80
2018-07-12T06:51:49.443Z,52.70
2018-07-12T06:54:15.995Z,52.70
2018-07-12T07:01:36.429Z,52.50
2018-07-12T07:04:02.965Z,52.30
2018-07-12T07:06:29.446Z,52.40
2018-07-12T07:08:55.907Z,52.30
2018-07-12T07:11:22.377Z,53.10
2018-07-12T07:13:49.123Z,52.40
2018-07-12T07:16:15.612Z,52.40
2018-07-12T07:18:42.107Z,52.30
2018-07-12T07:21:08.591Z,52.30
2018-07-12T07:23:35.054Z,52.20
2018-07-12T07:26:02.058Z,52.10
2018-07-12T07:28:28.537Z,52.20
2018-07-12T07:30:54.980Z,52.20
2018-07-12T07:33:21.478Z,52.30
2018-07-12T07:35:48.714Z,52.20
2018-07-12T07:38:15.212Z,52.20
2018-07-12T07:40:42.259Z,52.30
2018-07-12T07:45:35.942Z,52.60
2018-07-12T07:48:02.406Z,52.50
2018-07-12T07:50:30.105Z,52.40
2018-07-12T07:52:56.600Z,52.20
2018-07-12T07:55:23.074Z,52.30
2018-07-12T07:57:49.519Z,52.20
2018-07-12T08:00:15.986Z,52.10
2018-07-12T08:02:42.482Z,51.80
2018-07-12T08:05:08.992Z,51.80
2018-07-12T08:07:35.497Z,51.80
2018-07-12T08:10:02.002Z,51.80
2018-07-12T08:12:28.493Z,51.80
2018-07-12T08:14:54.996Z,51.80
2018-07-12T08:17:22.034Z,51.80
2018-07-12T08:19:48.511Z,51.80
2018-07-12T08:22:15.042Z,51.70
2018-07-12T08:24:41.569Z,51.70
2018-07-12T08:27:08.125Z,51.70
2018-07-12T08:29:34.841Z,51.50
2018-07-12T08:32:02.538Z,51.40
2018-07-12T08:34:29.143Z,51.40
2018-07-12T08:36:55.895Z,51.30
2018-07-12T08:39:22.536Z,51.20
2018-07-12T08:41:49.273Z,51.20
2018-07-12T08:44:15.889Z,51.20
2018-07-12T08:46:42.362Z,51.20
2018-07-12T08:49:08.858Z,51.10
2018-07-12T08:51:35.343Z,51.00
2018-07-12T08:54:01.887Z,51.00
2018-07-12T08:56:28.360Z,50.80
2018-07-12T08:58:54.844Z,51.30
2018-07-12T09:01:21.324Z,50.90
2018-07-12T09:03:47.966Z,51.40
2018-07-12T09:06:14.466Z,50.80
2018-07-12T09:08:40.924Z,50.70
2018-07-12T09:13:34.904Z,50.50
2018-07-12T09:16:01.505Z,50.40
2018-07-12T09:18:28.038Z,50.40
2018-07-12T09:20:54.512Z,49.80
2018-07-12T09:23:21.015Z,50.30
2018-07-12T09:25:48.272Z,50.30
2018-07-12T09:28:14.774Z,50.40
2018-07-12T09:30:41.275Z,50.20
2018-07-12T09:33:07.710Z,50.10
2018-07-12T09:35:35.377Z,50.30
2018-07-12T09:38:01.887Z,50.10
2018-07-12T09:40:28.362Z,50.30
2018-07-12T09:42:54.865Z,50.30
2018-07-12T09:45:21.292Z,50.40
2018-07-12T09:47:47.757Z,50.10
2018-07-12T09:50:14.211Z,50.20
2018-07-12T09:55:07.680Z,50.20
2018-07-12T09:57:34.171Z,50.30
2018-07-12T10:00:00.757Z,50.20
2018-07-12T10:02:33.002Z,50.10
2018-07-12T10:04:59.557Z,50.10
2018-07-12T10:07:29.988Z,50.00
2018-07-12T10:09:57.238Z,50.10
2018-07-12T10:12:32.061Z,50.10
2018-07-12T10:15:04.106Z,50.00
2018-07-12T10:17:36.126Z,50.00
2018-07-12T10:20:04.827Z,50.00
2018-07-12T10:22:31.313Z,50.00
2018-07-12T10:24:57.798Z,50.00
2018-07-12T10:27:24.300Z,50.00
2018-07-12T10:29:50.779Z,50.00
2018-07-12T10:32:17.263Z,50.00
2018-07-12T10:34:44.410Z,50.00
2018-07-12T10:37:11.036Z,50.00
2018-07-12T10:39:38.005Z,50.10
2018-07-12T10:42:04.496Z,50.70
2018-07-12T10:44:31.046Z,50.00
2018-07-12T10:46:57.545Z,50.00
2018-07-12T10:49:24.053Z,49.90
2018-07-12T10:51:50.637Z,49.90
2018-07-12T10:54:17.165Z,49.90
2018-07-12T10:56:43.603Z,50.00
2018-07-12T10:59:10.080Z,50.00
2018-07-12T11:01:36.564Z,50.60
2018-07-12T11:04:03.337Z,50.40
2018-07-12T11:06:29.922Z,50.70
2018-07-12T11:08:56.439Z,50.90
2018-07-12T11:11:23.923Z,51.10
2018-07-12T11:16:19.999Z,51.10
2018-07-12T11:18:46.499Z,50.90
2018-07-12T11:21:13.373Z,50.90
2018-07-12T11:23:40.223Z,51.00
2018-07-12T11:26:06.883Z,51.00
2018-07-12T11:28:33.335Z,51.00
2018-07-12T11:30:59.883Z,50.90
2018-07-12T11:33:26.351Z,50.70
2018-07-12T11:35:52.928Z,50.50
2018-07-12T11:38:19.527Z,50.30
2018-07-12T11:40:46.094Z,50.20
2018-07-12T11:43:12.585Z,50.20
2018-07-12T11:45:39.081Z,50.20
2018-07-12T11:48:05.557Z,50.20
2018-07-12T11:50:32.074Z,50.20
2018-07-12T11:52:58.598Z,50.30
2018-07-12T11:55:25.557Z,50.40
2018-07-12T11:57:52.039Z,50.30
2018-07-12T12:00:18.508Z,50.30
2018-07-12T12:02:45.011Z,50.30
2018-07-12T12:05:11.486Z,50.20
2018-07-12T12:07:37.967Z,50.20
2018-07-12T12:12:31.444Z,50.50
2018-07-12T12:14:57.885Z,50.70
2018-07-12T12:17:24.353Z,50.60
2018-07-12T12:19:50.813Z,50.50
2018-07-12T12:22:17.333Z,50.60
2018-07-12T12:24:43.892Z,50.50
2018-07-12T12:27:10.367Z,50.50
2018-07-12T12:29:36.885Z,50.60
2018-07-12T12:32:03.343Z,50.60
2018-07-12T12:34:30.503Z,50.60
2018-07-12T12:36:56.981Z,50.60
2018-07-12T12:39:23.433Z,50.60
2018-07-12T12:41:49.945Z,51.20
2018-07-12T12:44:16.388Z,50.60
2018-07-12T12:46:42.893Z,50.60
2018-07-12T12:49:09.313Z,50.70
2018-07-12T12:51:36.476Z,50.60
2018-07-12T12:54:02.961Z,50.70
2018-07-12T12:56:29.432Z,50.70
2018-07-12T12:58:55.914Z,50.70
2018-07-12T13:01:22.592Z,50.70
2018-07-12T13:03:49.099Z,50.80
2018-07-12T13:06:15.803Z,50.80
2018-07-12T13:08:42.288Z,50.80
2018-07-12T13:11:08.823Z,50.80
2018-07-12T13:13:35.280Z,50.70
2018-07-12T13:16:01.765Z,50.70
2018-07-12T13:18:28.398Z,50.70
2018-07-12T13:20:54.924Z,50.80
2018-07-12T13:23:21.395Z,50.90
2018-07-12T13:25:48.334Z,51.50
2018-07-12T13:28:15.277Z,50.80
2018-07-12T13:30:41.749Z,50.80
2018-07-12T13:33:08.242Z,50.90
2018-07-12T13:35:35.023Z,50.90
2018-07-12T13:38:01.750Z,50.80
2018-07-12T13:40:28.276Z,50.80
2018-07-12T13:42:54.753Z,50.90
2018-07-12T13:45:21.236Z,50.80
2018-07-12T13:47:47.698Z,50.80
2018-07-12T13:50:14.187Z,50.90
2018-07-12T13:52:40.657Z,50.80
2018-07-12T13:55:07.110Z,50.90
2018-07-12T13:57:34.175Z,51.60
2018-07-12T14:00:00.661Z,51.10
2018-07-12T14:02:27.176Z,51.20
2018-07-12T14:04:53.676Z,51.30
2018-07-12T14:09:47.214Z,51.40
2018-07-12T14:12:13.818Z,51.60
2018-07-12T14:14:40.268Z,51.60
2018-07-12T14:17:06.845Z,51.90
2018-07-12T14:19:33.316Z,51.80
2018-07-12T14:21:59.787Z,51.90
2018-07-12T14:24:26.318Z,51.80
2018-07-12T14:26:52.781Z,51.90
2018-07-12T14:29:19.294Z,51.90
2018-07-12T14:31:45.801Z,51.90
2018-07-12T14:34:12.337Z,51.90
2018-07-12T14:36:38.854Z,51.90
2018-07-12T14:39:05.354Z,51.90
2018-07-12T14:41:31.888Z,51.90
2018-07-12T14:43:59.123Z,52.80
2018-07-12T14:46:25.616Z,52.10
2018-07-12T14:48:52.113Z,52.30
2018-07-12T14:51:18.590Z,52.40
2018-07-12T14:53:45.080Z,52.70
2018-07-12T14:56:11.567Z,52.60
2018-07-12T14:58:39.213Z,52.70
2018-07-12T15:01:05.754Z,52.80
2018-07-12T15:03:32.286Z,52.90
2018-07-12T15:05:59.280Z,53.00
2018-07-12T15:08:25.783Z,53.00
2018-07-12T15:10:52.351Z,53.60
2018-07-12T15:13:18.854Z,53.80
2018-07-12T15:15:46.182Z,53.10
2018-07-12T15:18:12.851Z,53.10
2018-07-12T15:20:39.998Z,52.90
2018-07-12T15:23:06.974Z,52.90
2018-07-12T15:25:33.480Z,53.00
2018-07-12T15:28:00.173Z,53.10
2018-07-12T15:30:26.516Z,53.20
2018-07-12T15:32:52.989Z,53.30
2018-07-12T15:35:19.690Z,53.50
2018-07-12T15:37:46.160Z,53.50
2018-07-12T15:40:12.682Z,53.40
2018-07-12T15:42:39.158Z,53.80
2018-07-12T15:45:05.783Z,54.50
2018-07-12T15:47:32.264Z,54.00
2018-07-12T15:49:58.750Z,54.10
2018-07-12T15:52:25.214Z,54.10
2018-07-12T15:54:51.704Z,53.80
2018-07-12T15:57:18.239Z,53.70
2018-07-12T15:59:44.710Z,53.70
2018-07-12T16:02:11.382Z,53.60
2018-07-12T16:04:37.873Z,53.70
2018-07-12T16:07:04.427Z,53.70
2018-07-12T16:09:31.007Z,53.70
2018-07-12T16:11:57.652Z,53.70
2018-07-12T16:14:24.151Z,53.50
2018-07-12T16:16:51.668Z,53.40
2018-07-12T16:19:18.102Z,53.40
2018-07-12T16:21:44.577Z,53.40
2018-07-12T16:24:11.091Z,53.50
2018-07-12T16:26:37.545Z,53.40
2018-07-12T16:29:04.039Z,53.50
2018-07-12T16:31:30.519Z,54.00
2018-07-12T16:33:56.991Z,54.10
2018-07-12T16:36:23.442Z,54.10
2018-07-12T16:38:49.910Z,54.00
2018-07-12T16:41:16.408Z,54.30
2018-07-12T16:43:43.660Z,54.40
2018-07-12T16:46:10.139Z,54.60
2018-07-12T16:48:36.781Z,54.70
2018-07-12T16:51:03.888Z,54.70
2018-07-12T16:53:30.373Z,54.70
2018-07-12T16:55:56.809Z,54.70
2018-07-12T16:58:23.283Z,55.20
2018-07-12T17:00:49.834Z,54.80
2018-07-12T17:03:16.325Z,55.00
2018-07-12T17:05:42.775Z,54.80
2018-07-12T17:08:09.276Z,54.70
2018-07-12T17:10:35.844Z,54.70
2018-07-12T17:13:02.342Z,54.50
2018-07-12T17:15:29.022Z,54.60
2018-07-12T17:17:55.509Z,54.30
2018-07-12T17:20:21.993Z,54.30
2018-07-12T17:22:48.513Z,54.30
2018-07-12T17:25:14.977Z,54.30
2018-07-12T17:27:41.540Z,54.20
2018-07-12T17:30:07.981Z,54.40
2018-07-12T17:32:34.455Z,54.40
2018-07-12T17:35:00.945Z,54.40
2018-07-12T17:37:27.407Z,54.40
2018-07-12T17:39:53.872Z,54.30
2018-07-12T17:42:20.468Z,54.40
2018-07-12T17:44:46.954Z,54.30
2018-07-12T17:47:13.506Z,54.20
2018-07-12T17:49:39.966Z,55.00
2018-07-12T17:52:06.460Z,54.20
2018-07-12T17:54:33.575Z,54.20
2018-07-12T17:57:00.077Z,54.30
2018-07-12T17:59:26.580Z,54.30
2018-07-12T18:01:53.036Z,54.60
2018-07-12T18:04:19.538Z,54.80
2018-07-12T18:06:46.037Z,55.50
2018-07-12T18:09:12.488Z,55.00
2018-07-12T18:11:38.967Z,55.10
2018-07-12T18:14:05.482Z,55.10
2018-07-12T18:16:31.989Z,55.30
2018-07-12T18:18:58.510Z,55.30
2018-07-12T18:21:24.987Z,55.40
2018-07-12T18:23:51.420Z,55.50
2018-07-12T18:26:17.880Z,55.50
2018-07-12T18:28:44.372Z,55.50
2018-07-12T18:31:10.874Z,55.40
2018-07-12T18:33:37.382Z,55.50
2018-07-12T18:36:05.057Z,55.60
2018-07-12T18:38:31.547Z,55.70
2018-07-12T18:40:58.052Z,55.80
2018-07-12T18:43:24.528Z,55.60
2018-07-12T18:45:51.536Z,55.70
2018-07-12T18:48:18.032Z,55.60
2018-07-12T18:50:44.762Z,55.60
2018-07-12T18:53:11.257Z,55.80
2018-07-12T18:55:37.752Z,56.10
2018-07-12T18:58:04.234Z,55.90
2018-07-12T19:00:30.714Z,56.00
2018-07-12T19:02:57.362Z,56.10
2018-07-12T19:05:24.674Z,56.10
2018-07-12T19:07:51.163Z,56.10
2018-07-12T19:10:18.369Z,56.00
2018-07-12T19:12:44.879Z,56.10
2018-07-12T19:15:11.522Z,56.10
2018-07-12T19:17:37.946Z,56.10
2018-07-12T19:20:04.578Z,56.20
2018-07-12T19:22:31.146Z,56.20
2018-07-12T19:24:57.735Z,56.20
2018-07-12T19:27:24.268Z,56.20
2018-07-12T19:29:50.777Z,56.10
2018-07-12T19:32:17.303Z,56.10
2018-07-12T19:34:43.881Z,56.10
2018-07-12T19:37:10.269Z,56.20
2018-07-12T19:39:36.783Z,56.10
2018-07-12T19:42:03.627Z,56.10
2018-07-12T19:44:30.099Z,56.60
2018-07-12T19:46:56.617Z,56.00
2018-07-12T19:51:53.217Z,56.30
2018-07-12T19:54:19.706Z,56.00
2018-07-12T19:56:46.220Z,55.90
2018-07-12T19:59:12.727Z,55.70
2018-07-12T20:01:39.708Z,55.80
2018-07-12T20:04:06.223Z,55.80
2018-07-12T20:06:32.713Z,56.10
2018-07-12T20:08:59.291Z,56.10
2018-07-12T20:11:26.421Z,55.90
2018-07-12T20:13:52.937Z,56.30
2018-07-12T20:16:19.475Z,56.30
2018-07-12T20:18:46.639Z,56.30
2018-07-12T20:21:13.718Z,56.30
2018-07-12T20:23:40.239Z,56.30
2018-07-12T20:26:07.051Z,56.50
2018-07-12T20:28:33.550Z,56.60
2018-07-12T20:31:00.071Z,56.50
2018-07-12T20:33:26.551Z,56.70
2018-07-12T20:35:53.141Z,57.30
2018-07-12T20:38:19.751Z,56.70
2018-07-12T20:40:46.313Z,56.80
2018-07-12T20:43:12.858Z,56.70
2018-07-12T20:45:39.495Z,56.70
2018-07-12T20:48:06.003Z,56.80
2018-07-12T20:50:33.030Z,56.80
2018-07-12T20:52:59.542Z,56.80
2018-07-12T20:55:25.993Z,56.80
2018-07-12T20:57:52.445Z,56.80
2018-07-12T21:00:18.996Z,56.90
2018-07-12T21:02:45.489Z,56.90
2018-07-12T21:05:11.973Z,57.00
2018-07-12T21:07:38.601Z,57.00
2018-07-12T21:10:05.101Z,57.10
2018-07-12T21:12:32.075Z,56.80
2018-07-12T21:14:58.561Z,56.80
2018-07-12T21:17:25.054Z,56.80
2018-07-12T21:19:51.548Z,56.60
2018-07-12T21:22:17.990Z,56.40
2018-07-12T21:24:44.485Z,56.30
2018-07-12T21:27:11.065Z,56.10
2018-07-12T21:29:37.601Z,56.20
2018-07-12T21:32:04.152Z,56.20
2018-07-12T21:34:30.667Z,56.20
2018-07-12T21:36:57.134Z,56.20
2018-07-12T21:39:23.654Z,56.20
2018-07-12T21:41:50.395Z,56.20
2018-07-12T21:44:16.881Z,56.10
2018-07-12T21:46:43.341Z,56.10
2018-07-12T21:49:09.828Z,56.00
2018-07-12T21:51:36.450Z,56.10
2018-07-12T21:54:02.871Z,56.00
2018-07-12T21:56:29.402Z,56.00
2018-07-12T21:58:55.845Z,56.10
2018-07-12T22:01:22.352Z,56.00
2018-07-12T22:03:48.804Z,55.90
2018-07-12T22:06:15.280Z,55.90
2018-07-12T22:08:41.790Z,55.80
2018-07-12T22:11:08.309Z,55.80
2018-07-12T22:13:36.115Z,55.80
2018-07-12T22:16:02.595Z,55.70
2018-07-12T22:18:29.137Z,55.70
2018-07-12T22:20:55.574Z,55.70
2018-07-12T22:23:22.560Z,55.60
2018-07-12T22:25:49.770Z,55.50
2018-07-12T22:28:16.281Z,55.60
2018-07-12T22:30:43.010Z,55.60
2018-07-12T22:33:09.539Z,55.50
2018-07-12T22:35:36.694Z,55.50
2018-07-12T22:38:03.785Z,55.00
2018-07-12T22:40:30.658Z,55.40
2018-07-12T22:42:57.477Z,55.30
2018-07-12T22:45:24.243Z,55.40
2018-07-12T22:47:50.785Z,55.40
2018-07-12T22:50:17.613Z,55.40
2018-07-12T22:52:44.121Z,55.30
2018-07-12T22:55:10.609Z,55.30
2018-07-12T22:57:37.125Z,55.30
2018-07-12T23:00:03.603Z,55.30
2018-07-12T23:02:30.077Z,55.30
2018-07-12T23:04:56.541Z,55.20
2018-07-12T23:07:22.969Z,55.80
2018-07-12T23:09:49.427Z,55.20
2018-07-12T23:12:15.879Z,54.00
2018-07-12T23:14:42.333Z,55.00
2018-07-12T23:17:08.793Z,55.00
2018-07-12T23:19:35.341Z,55.10
2018-07-12T23:22:01.817Z,55.00
2018-07-12T23:24:28.293Z,55.10
2018-07-12T23:26:54.767Z,55.10
2018-07-12T23:29:21.276Z,55.10
2018-07-12T23:31:47.775Z,55.00
2018-07-12T23:34:14.283Z,55.00
2018-07-12T23:36:40.760Z,55.00
2018-07-12T23:39:07.672Z,55.00
2018-07-12T23:41:34.269Z,55.00
2018-07-12T23:44:00.712Z,55.00
2018-07-12T23:46:27.174Z,55.00
2018-07-12T23:48:53.613Z,55.00
2018-07-12T23:51:20.106Z,54.90
2018-07-12T23:53:46.582Z,54.90
2018-07-12T23:56:13.127Z,54.80
2018-07-12T23:58:39.665Z,54.70
